tititudorancea.com
Station Historical Data
Daily Summary for January 11, 2018 Units:  Metric    English   Both
« Previous Day
Next Day »
Daily Weekly Monthly Yearly Custom
  High: Low: Average:
Temperature: -17.8 °C 9.2 °C 22 °C
Dew Point: -17.8 °C 0.2 °C 6.8 °C
Humidity: Humidity % 15 % 48 %
Wind Speed: 0 km/h 0 km/h 4 km/h
Wind Gust: 0 km/h - -
Wind:- - WSW
Pressure: 0 hPa 1006.3 hPa -
Precipitation: 0 mm    
Historical Graphs
 
 
Ararat weather Find more about Weather in Ararat, AU


 



 


Tabular Data for January 11, 2018
Time Temperature Dew Point Pressure Wind Wind Speed Wind Gust Humidity Rainfall Rate (Hourly)
-17.8 °C -17.8 °C 0 hPa Calm     Humidity % 0 mm
00:45 15.7 °C 11.1 °C 1012.1 hPa Calm     74 % 0 mm
00:58 15.2 °C 11 °C 1012.1 hPa Calm     76 % 0 mm
01:05 14.9 °C 11.2 °C 1012.1 hPa Calm     78 % 0 mm
01:18 14.8 °C 11.2 °C 1012.1 hPa South 1.1 km/h 3.7 km/h 79 % 0 mm
01:27 14.5 °C 10.9 °C 1012.1 hPa Calm     79 % 0 mm
01:37 14.1 °C 10.7 °C 1011.7 hPa Calm   1.9 km/h 80 % 0 mm
01:42 13.8 °C 10.4 °C 1011.7 hPa Calm     80 % 0 mm
01:49 13.6 °C 10.2 °C 1011.7 hPa Calm     80 % 0 mm
01:58 13.2 °C 10.2 °C 1011.7 hPa Calm     82 % 0 mm
02:12 12.9 °C 10.6 °C 1011.4 hPa South 1.4 km/h 3.7 km/h 86 % 0 mm
02:17 12.9 °C 10.6 °C 1011.4 hPa Calm     86 % 0 mm
02:23 12.7 °C 10.3 °C 1011.1 hPa Calm     85 % 0 mm
02:29 12.6 °C 10.2 °C 1011.4 hPa Calm     85 % 0 mm
02:34 12.4 °C 10.2 °C 1011.4 hPa Calm     86 % 0 mm
02:43 12.5 °C 10.2 °C 1011.4 hPa Calm     86 % 0 mm
02:49 12.4 °C 10.1 °C 1011.1 hPa Calm     86 % 0 mm
02:55 12.2 °C 9.9 °C 1011.1 hPa North 1.6 km/h 3.7 km/h 86 % 0 mm
03:01 12 °C 9.6 °C 1011.1 hPa Calm     85 % 0 mm
03:06 11.8 °C 9.3 °C 1011.1 hPa Calm     85 % 0 mm
03:14 11.5 °C 9.1 °C 1010.7 hPa Calm     85 % 0 mm
03:19 11.3 °C 8.9 °C 1010.7 hPa Calm     85 % 0 mm
03:25 11.2 °C 8.9 °C 1010.7 hPa Calm     86 % 0 mm
03:40 10.9 °C 8.8 °C 1010.7 hPa Calm     87 % 0 mm
03:47 10.8 °C 8.7 °C 1010.7 hPa Calm     87 % 0 mm
03:54 10.8 °C 8.9 °C 1010.7 hPa Calm     88 % 0 mm
03:59 10.8 °C 8.9 °C 1010.7 hPa Calm     88 % 0 mm
04:05 10.7 °C 8.8 °C 1010.4 hPa Calm     88 % 0 mm
04:10 10.7 °C 9 °C 1010.4 hPa Calm     89 % 0 mm
04:16 10.8 °C 9.1 °C 1010.7 hPa Calm     89 % 0 mm
04:23 10.8 °C 9.2 °C 1010.7 hPa North 1.4 km/h 1.9 km/h 90 % 0 mm
04:33 10.8 °C 9.2 °C 1010.7 hPa Calm     90 % 0 mm
04:39 10.7 °C 9.2 °C 1010.7 hPa Calm     90 % 0 mm
04:53 10.8 °C 9.3 °C 1010.7 hPa Calm     90 % 0 mm
04:58 10.9 °C 9.3 °C 1010.7 hPa Calm     90 % 0 mm
05:05 10.9 °C 9.3 °C 1010.4 hPa Calm     90 % 0 mm
05:10 10.8 °C 9.2 °C 1010.4 hPa Calm     90 % 0 mm
05:23 10.4 °C 8.9 °C 1010.7 hPa Calm     90 % 0 mm
05:29 10.3 °C 8.6 °C 1010.7 hPa Calm     89 % 0 mm
05:36 10.1 °C 8.5 °C 1010.7 hPa Calm     90 % 0 mm
05:42 9.9 °C 8.2 °C 1010.7 hPa Calm     89 % 0 mm
05:49 9.7 °C 8.2 °C 1010.7 hPa Calm     90 % 0 mm
06:06 9.3 °C 7.8 °C 1011.1 hPa Calm     90 % 0 mm
06:12 9.3 °C 7.7 °C 1011.1 hPa Calm     90 % 0 mm
06:19 9.2 °C 7.7 °C 1011.1 hPa Calm     90 % 0 mm
06:36 9.4 °C 8.1 °C 1011.1 hPa Calm     91 % 0 mm
06:52 9.6 °C 8.2 °C 1011.4 hPa Calm     91 % 0 mm
07:05 9.8 °C 8.4 °C 1011.4 hPa Calm     91 % 0 mm
07:20 10.3 °C 8.9 °C 1011.7 hPa Calm     91 % 0 mm
07:31 11.1 °C 9.8 °C 1011.7 hPa Calm     92 % 0 mm
08:14 17.4 °C 10.7 °C 1011.7 hPa Calm   1.9 km/h 65 % 0 mm
08:16 17.5 °C 10.6 °C 1011.7 hPa South 1.1 km/h 1.6 km/h 64 % 0 mm
08:21 18.1 °C 10.2 °C 1011.7 hPa Calm     60 % 0 mm
08:34 19.5 °C 9.1 °C 1011.7 hPa Calm     51 % 0 mm
09:00 20.7 °C 9.6 °C 1011.7 hPa Calm   1.6 km/h 49 % 0 mm
09:05 20.9 °C 9.8 °C 1011.7 hPa Calm     49 % 0 mm
09:20 22.7 °C 8.4 °C 1011.7 hPa South 2.7 km/h 7.4 km/h 40 % 0 mm
09:26 23.4 °C 7.9 °C 1011.7 hPa North 3.1 km/h 5.6 km/h 37 % 0 mm
09:32 24.2 °C 5.5 °C 1011.7 hPa ENE 6.3 km/h 9.3 km/h 30 % 0 mm
09:42 25.4 °C 5.1 °C 1011.7 hPa NE 7.2 km/h 11.1 km/h 27 % 0 mm
09:51 26 °C 3.8 °C 1011.7 hPa NE 9.2 km/h 13 km/h 24 % 0 mm
09:57 26.3 °C 3.6 °C 1011.7 hPa NE 7.2 km/h 13 km/h 23 % 0 mm
10:02 26.7 °C 3.8 °C 1011.7 hPa NNE 4.2 km/h 11.1 km/h 23 % 0 mm
10:32 27.9 °C 2.1 °C 1011.7 hPa NNE 6.1 km/h 11.1 km/h 19 % 0 mm
10:39 28.3 °C 1.7 °C 1011.7 hPa NNE 10 km/h 18.5 km/h 18 % 0 mm
11:08 28.4 °C 0.2 °C 1011.4 hPa NW 17.7 km/h 25.9 km/h 16 % 0 mm
11:17 28.6 °C 0.3 °C 1011.4 hPa North 13.5 km/h 13.5 km/h 16 % 0 mm
11:23 28.9 °C 0.6 °C 1011.1 hPa North 13.8 km/h 22.2 km/h 16 % 0 mm
11:41 28.8 °C 1.3 °C 1010.7 hPa NW 12.7 km/h 18.5 km/h 17 % 0 mm
11:47 28.9 °C 1.4 °C 1010.7 hPa North 9.5 km/h 11.1 km/h 17 % 0 mm
11:54 29 °C 2.3 °C 1010.7 hPa North 12.6 km/h 18.5 km/h 18 % 0 mm
12:06 29.6 °C 1.9 °C 1010.7 hPa NNW 13.5 km/h 18.5 km/h 17 % 0 mm
12:07 29.6 °C 1.1 °C 1010.7 hPa NNW 14.8 km/h 20.4 km/h 16 % 0 mm
12:08 29.6 °C 1.9 °C 1010.7 hPa NW 13.4 km/h 18.5 km/h 17 % 0 mm
12:10 29.7 °C 2 °C 1010.7 hPa NNW 7.9 km/h 14.8 km/h 17 % 0 mm
12:12 29.8 °C 2.2 °C 1010.7 hPa West 12.2 km/h 14.8 km/h 17 % 0 mm
12:26 30.3 °C 1.7 °C 1010.7 hPa North 6.3 km/h 18.5 km/h 16 % 0 mm
12:34 30.1 °C 0.6 °C 1010.7 hPa NW 10.6 km/h 14.8 km/h 15 % 0 mm
12:41 29.9 °C 1.4 °C 1010.7 hPa NW 7.6 km/h 11.3 km/h 16 % 0 mm
13:00 30 °C 1.4 °C 1010.4 hPa NNE 6 km/h 9.7 km/h 16 % 0 mm
13:16 30.8 °C 1.2 °C 1010.4 hPa North 12.9 km/h 24.1 km/h 15 % 0 mm
13:21 30.8 °C 1.2 °C 1010.4 hPa North 10.8 km/h 18.5 km/h 15 % 0 mm
13:24 30.7 °C 1.1 °C 1010.4 hPa North 11.1 km/h 18.5 km/h 15 % 0 mm
13:52 31.4 °C 3.4 °C 1009.7 hPa NNW 12.2 km/h 18.5 km/h 17 % 0 mm
14:01 31.6 °C 1.8 °C 1009.7 hPa North 5.8 km/h 13 km/h 15 % 0 mm
14:07 31.8 °C 2.8 °C 1009.7 hPa NNE 13.8 km/h 20.9 km/h 16 % 0 mm
14:27 31.5 °C 2.6 °C 1009.4 hPa NNE 10.6 km/h 13 km/h 16 % 0 mm
14:42 32.2 °C 3.2 °C 1009.4 hPa North 8.9 km/h 14.5 km/h 16 % 0 mm
14:57 31.4 °C 3.4 °C 1009.4 hPa North 8.9 km/h 9.3 km/h 17 % 0 mm
15:04 31.8 °C 5.3 °C 1009 hPa North 10 km/h 17.7 km/h 19 % 0 mm
15:11 32.5 °C 4.3 °C 1009 hPa WNW 14.8 km/h 18.5 km/h 17 % 0 mm
15:26 31.7 °C 4.5 °C 1009 hPa North 14 km/h 22.2 km/h 18 % 0 mm
15:33 31.9 °C 4.7 °C 1009 hPa WNW 9 km/h 14.8 km/h 18 % 0 mm
15:41 32.1 °C 4.8 °C 1008.7 hPa North 5.6 km/h 11.1 km/h 18 % 0 mm
15:54 32.3 °C 4.1 °C 1008.7 hPa NNW 11.6 km/h 16.7 km/h 17 % 0 mm
16:08 32 °C 5.5 °C 1008.7 hPa North 10.1 km/h 16.7 km/h 19 % 0 mm
16:16 32.1 °C 5.6 °C 1008.4 hPa North 10.1 km/h 11.1 km/h 19 % 0 mm
16:23 32.1 °C 6.3 °C 1008.4 hPa North 4.2 km/h 5.6 km/h 20 % 0 mm
16:47 32.2 °C 6.4 °C 1008 hPa NNE 9.3 km/h 16.1 km/h 20 % 0 mm
17:12 32 °C 5.5 °C 1007.7 hPa WNW 6.6 km/h 7.4 km/h 19 % 0 mm
17:18 32.1 °C 6.3 °C 1007.7 hPa NW 0.6 km/h 7.4 km/h 20 % 0 mm
17:32 32.6 °C 5.9 °C 1007.7 hPa NW 9.5 km/h 13 km/h 19 % 0 mm
17:38 32.3 °C 5.8 °C 1007.7 hPa North 7.2 km/h 11.1 km/h 19 % 0 mm
17:46 33 °C 6.3 °C 1007.7 hPa NW 3.2 km/h 5.6 km/h 19 % 0 mm
17:52 33.2 °C 5.7 °C 1007.7 hPa North 11.7 km/h 18.5 km/h 18 % 0 mm
17:59 33 °C 6.3 °C 1007.7 hPa NNW 4 km/h 11.1 km/h 19 % 0 mm
18:05 32.5 °C 5.9 °C 1007.3 hPa NNW 12.9 km/h 16.7 km/h 19 % 0 mm
18:23 32 °C 6.2 °C 1007.3 hPa NW 5.6 km/h 6.4 km/h 20 % 0 mm
18:30 32.4 °C 6.6 °C 1007.3 hPa NNW 3.1 km/h 5.6 km/h 20 % 0 mm
18:52 32.4 °C 5.8 °C 1007.3 hPa WNW 10.1 km/h 16.7 km/h 19 % 0 mm
18:58 31.9 °C 6.2 °C 1007.3 hPa NW 6.4 km/h 7.4 km/h 20 % 0 mm
19:07 31.6 °C 5.9 °C 1007.3 hPa NW 4.7 km/h 7.4 km/h 20 % 0 mm
19:16 31.5 °C 6.5 °C 1007.3 hPa NW 6.9 km/h 11.1 km/h 21 % 0 mm
19:43 31.2 °C 6.3 °C 1007.3 hPa NW 4.2 km/h 5.6 km/h 21 % 0 mm
20:20 30.6 °C 7.1 °C 1007.7 hPa Calm     23 % 0 mm
20:26 30.3 °C 6.9 °C 1007.7 hPa North 0.2 km/h 1.6 km/h 23 % 0 mm
20:33 30.1 °C 7.9 °C 1007.7 hPa Calm     25 % 0 mm
20:54 28.8 °C 8.5 °C 1007.7 hPa Calm     28 % 0 mm
21:01 28.2 °C 8.5 °C 1007.7 hPa Calm     29 % 0 mm
21:07 27.8 °C 8.7 °C 1007.7 hPa Calm     30 % 0 mm
21:18 27.5 °C 9.8 °C 1007.3 hPa Calm     33 % 0 mm
21:23 27.3 °C 9.7 °C 1007.3 hPa Calm     33 % 0 mm
21:30 27.1 °C 9.9 °C 1007.3 hPa Calm     34 % 0 mm
21:50 26.4 °C 10.5 °C 1007.3 hPa Calm     37 % 0 mm
22:00 25.8 °C 10.4 °C 1007 hPa Calm     38 % 0 mm
22:07 25.7 °C 10.7 °C 1007 hPa Calm     39 % 0 mm
22:18 25.5 °C 10.9 °C 1007 hPa Calm     40 % 0 mm
22:24 25.3 °C 11.1 °C 1007 hPa Calm     41 % 0 mm
22:42 25.2 °C 11.1 °C 1006.7 hPa Calm     41 % 0 mm
23:35 24.8 °C 9.5 °C 1006.3 hPa Calm     38 % 0 mm
23:47 25.5 °C 8.5 °C 1006.3 hPa NW 1 km/h 3.7 km/h 34 % 0 mm
Ararat Weather
Compliments of Weather Underground - 1.5 mb
Click here to send mail.


ABOUT

Live weather data from Ararat, Victoria, Australia, 3377
Data uploaded from Cumulus every 5 minutes to Weather Underground.
This site then downloads the raw data for formatting and display.
Metric and imperial data can be displayed. Graphs and historical data available.
Includes Sun and Moon times and rain image live from BOM.

Check out Ararat Weather on Facebook, Twitter and Google +

Help support ongoing costs by checking out the ads





Follow @AraratWeather